createdAt,value
2023-05-21T00:19:50.796Z,50.875584
2023-05-21T00:20:50.750Z,50.875454
2023-05-21T00:21:50.741Z,50.875523
2023-05-21T00:22:50.744Z,50.875309
2023-05-21T00:23:50.726Z,50.875324
2023-05-21T00:24:50.756Z,50.875378
2023-05-21T00:25:50.695Z,50.875393
2023-05-21T00:26:50.693Z,50.875324
2023-05-21T00:27:50.679Z,50.875420
2023-05-21T00:28:50.684Z,50.875401
2023-05-21T00:29:50.664Z,50.875381
2023-05-21T00:30:50.657Z,50.875381
2023-05-21T00:31:50.666Z,50.875370
2023-05-21T00:32:50.676Z,50.875401
2023-05-21T00:33:50.627Z,50.875256
2023-05-21T00:34:50.615Z,50.875328
2023-05-21T00:35:50.610Z,50.875217
2023-05-21T00:36:50.601Z,50.875320
2023-05-21T00:37:50.590Z,50.875370
2023-05-21T00:38:50.577Z,50.875370
2023-05-21T00:39:50.581Z,50.875088
2023-05-21T00:40:50.555Z,50.875263
2023-05-21T00:41:50.542Z,50.875450
2023-05-21T00:42:50.560Z,50.875210
2023-05-21T00:43:50.521Z,50.875229
2023-05-21T00:44:50.512Z,50.875286
2023-05-21T00:45:50.526Z,50.875389
2023-05-21T00:46:50.493Z,50.875496
2023-05-21T00:47:50.519Z,50.875267
2023-05-21T00:48:50.469Z,50.875187
2023-05-21T00:49:50.471Z,50.875416
2023-05-21T00:50:51.452Z,50.875446
2023-05-21T00:51:50.449Z,50.875324
2023-05-21T00:52:50.446Z,50.875637
2023-05-21T00:53:50.422Z,50.875393
2023-05-21T00:54:50.411Z,50.875397
2023-05-21T00:55:50.418Z,50.875263
2023-05-21T00:56:50.397Z,50.875355
2023-05-21T00:57:50.394Z,50.875412
2023-05-21T00:58:50.366Z,50.875416
2023-05-21T00:59:50.370Z,50.875320
2023-05-21T01:00:50.451Z,50.875355
2023-05-21T01:01:50.451Z,50.875355
2023-05-21T01:02:50.416Z,50.875355
2023-05-21T01:03:50.324Z,50.875355
2023-05-21T01:04:50.331Z,50.875355
2023-05-21T01:05:50.297Z,50.875355
2023-05-21T01:06:50.307Z,50.875355
2023-05-21T01:07:50.285Z,50.875355
2023-05-21T01:08:50.276Z,50.875355
2023-05-21T01:09:50.261Z,50.875355
2023-05-21T01:10:50.258Z,50.875355
2023-05-21T01:11:50.262Z,50.875355
2023-05-21T01:12:50.240Z,50.875355
2023-05-21T01:13:50.233Z,50.875355
2023-05-21T01:14:50.216Z,50.875355
2023-05-21T01:15:50.218Z,50.875355
2023-05-21T01:16:50.267Z,50.875355
2023-05-21T01:17:50.210Z,50.875355
2023-05-21T01:18:50.273Z,50.875355
2023-05-21T01:19:50.244Z,50.875355
2023-05-21T01:20:50.199Z,50.875355
2023-05-21T01:21:50.149Z,50.875355
2023-05-21T01:22:50.142Z,50.875355
2023-05-21T01:23:50.132Z,50.875355
2023-05-21T01:24:50.119Z,50.875355
2023-05-21T01:25:50.116Z,50.875355
2023-05-21T01:26:50.102Z,50.875355
2023-05-21T01:27:50.095Z,50.875355
2023-05-21T01:28:50.079Z,50.875355
2023-05-21T01:29:50.089Z,50.875355
2023-05-21T01:30:50.074Z,50.875355
2023-05-21T01:31:50.063Z,50.875355
2023-05-21T01:32:50.144Z,50.875355
2023-05-21T01:33:50.087Z,50.875355
2023-05-21T01:34:50.040Z,50.875355
2023-05-21T01:35:50.014Z,50.875355
2023-05-21T01:36:50.001Z,50.875355
2023-05-21T01:37:50.003Z,50.875355
2023-05-21T01:38:49.994Z,50.875355
2023-05-21T01:39:49.996Z,50.875355
2023-05-21T01:40:49.974Z,50.875355
2023-05-21T01:41:49.959Z,50.875355
2023-05-21T01:42:49.958Z,50.875355
2023-05-21T01:43:49.955Z,50.875355
2023-05-21T01:44:49.939Z,50.875355
2023-05-21T01:45:49.924Z,50.875355
2023-05-21T01:46:50.046Z,50.875355
2023-05-21T01:47:49.954Z,50.875355
2023-05-21T01:48:49.900Z,50.875355
2023-05-21T01:49:49.889Z,50.875355
2023-05-21T01:50:49.885Z,50.875355
2023-05-21T01:51:49.861Z,50.875355
2023-05-21T01:52:49.855Z,50.875355
2023-05-21T01:53:49.863Z,50.875355
2023-05-21T01:54:49.832Z,50.875355
2023-05-21T01:55:49.818Z,50.875355
2023-05-21T01:56:49.828Z,50.875355
2023-05-21T01:57:49.804Z,50.875355
2023-05-21T01:58:49.816Z,50.875355
2023-05-21T01:59:49.779Z,50.875355
2023-05-21T02:00:49.773Z,50.875355
2023-05-21T02:01:49.858Z,50.875355
2023-05-21T02:02:49.791Z,50.875355
2023-05-21T02:03:49.809Z,50.875355
2023-05-21T02:04:49.733Z,50.875355
2023-05-21T02:05:49.728Z,50.875355
2023-05-21T02:06:49.740Z,50.875355
2023-05-21T02:07:49.741Z,50.875355
2023-05-21T02:08:49.701Z,50.875355
2023-05-21T02:09:49.693Z,50.875355
2023-05-21T02:10:49.672Z,50.875355
2023-05-21T02:11:49.658Z,50.875355
2023-05-21T02:12:49.672Z,50.875355
2023-05-21T02:13:49.643Z,50.875355
2023-05-21T02:14:49.639Z,50.875355
2023-05-21T02:15:49.647Z,50.875355
2023-05-21T02:16:49.622Z,50.875355
2023-05-21T02:17:49.673Z,50.875355
2023-05-21T02:18:49.613Z,50.875355
2023-05-21T02:19:49.577Z,50.875355
2023-05-21T02:20:49.587Z,50.875355
2023-05-21T02:21:49.574Z,50.875355
2023-05-21T02:22:49.545Z,50.875355
2023-05-21T02:23:49.549Z,50.875355
2023-05-21T02:24:49.532Z,50.875355
2023-05-21T02:25:49.524Z,50.875355
2023-05-21T02:26:49.527Z,50.875355
2023-05-21T02:27:49.514Z,50.875355
2023-05-21T02:28:49.498Z,50.875355
2023-05-21T02:29:49.492Z,50.875355
2023-05-21T02:30:49.475Z,50.875355
2023-05-21T02:31:49.478Z,50.875355
2023-05-21T02:32:49.472Z,50.875355
2023-05-21T02:33:49.455Z,50.875355
2023-05-21T02:34:49.434Z,50.875355
2023-05-21T02:35:49.442Z,50.875355
2023-05-21T02:36:49.454Z,50.875355
2023-05-21T02:37:49.406Z,50.875355
2023-05-21T02:38:49.389Z,50.875355
2023-05-21T02:39:49.385Z,50.875355
2023-05-21T02:40:49.388Z,50.875355
2023-05-21T02:41:49.361Z,50.875355
2023-05-21T02:42:49.356Z,50.875355
2023-05-21T02:43:49.344Z,50.875355
2023-05-21T02:44:49.339Z,50.875355
2023-05-21T02:45:49.361Z,50.875355
2023-05-21T02:46:49.320Z,50.875355
2023-05-21T02:47:49.323Z,50.875355
2023-05-21T02:48:49.301Z,50.875355
2023-05-21T02:49:49.299Z,50.875355
2023-05-21T02:50:49.282Z,50.875355
2023-05-21T02:51:49.254Z,50.875355
2023-05-21T02:52:50.259Z,50.875355
2023-05-21T02:53:49.237Z,50.875355
2023-05-21T02:54:49.254Z,50.875355
2023-05-21T02:55:49.218Z,50.875355
2023-05-21T02:56:49.207Z,50.875355
2023-05-21T02:57:49.196Z,50.875355
2023-05-21T02:58:49.195Z,50.875355
2023-05-21T02:59:49.197Z,50.875355
2023-05-21T03:00:49.173Z,50.875355
2023-05-21T03:01:49.243Z,50.875355
2023-05-21T03:02:49.240Z,50.875355
2023-05-21T03:03:49.200Z,50.875355
2023-05-21T03:04:50.149Z,50.875355
2023-05-21T03:05:49.136Z,50.875355
2023-05-21T03:06:49.112Z,50.875355
2023-05-21T03:07:49.120Z,50.875355
2023-05-21T03:08:49.091Z,50.875355
2023-05-21T03:09:49.110Z,50.875355
2023-05-21T03:10:49.070Z,50.875355
2023-05-21T03:11:49.071Z,50.875355
2023-05-21T03:12:49.067Z,50.875355
2023-05-21T03:13:49.092Z,50.875355
2023-05-21T03:14:49.053Z,50.875355
2023-05-21T03:15:49.030Z,50.875355
2023-05-21T03:16:49.113Z,50.875355
2023-05-21T03:17:49.050Z,50.875355
2023-05-21T03:18:49.019Z,50.875355
2023-05-21T03:19:49.004Z,50.875355
2023-05-21T03:20:48.962Z,50.875355
2023-05-21T03:21:49.973Z,50.875355
2023-05-21T03:22:48.955Z,50.875355
2023-05-21T03:23:48.963Z,50.875355
2023-05-21T03:24:48.939Z,50.875355
2023-05-21T03:25:48.940Z,50.875355
2023-05-21T03:26:48.914Z,50.875355
2023-05-21T03:27:48.914Z,50.875355
2023-05-21T03:28:48.912Z,50.875355
2023-05-21T03:29:48.882Z,50.875355
2023-05-21T03:30:48.878Z,50.875355
2023-05-21T03:31:48.951Z,50.875355
2023-05-21T03:32:48.875Z,50.875355
2023-05-21T03:33:48.865Z,50.875355
2023-05-21T03:34:48.853Z,50.875355
2023-05-21T03:35:48.833Z,50.875355
2023-05-21T03:36:48.821Z,50.875355
2023-05-21T03:37:48.813Z,50.875355
2023-05-21T03:38:48.810Z,50.875355
2023-05-21T03:39:48.794Z,50.875355
2023-05-21T03:40:48.771Z,50.875355
2023-05-21T03:41:48.778Z,50.875355
2023-05-21T03:42:48.778Z,50.875355
2023-05-21T03:43:48.746Z,50.875355
2023-05-21T03:44:48.738Z,50.875355
2023-05-21T03:45:48.757Z,50.875355
2023-05-21T03:46:48.718Z,50.875355
2023-05-21T03:47:48.751Z,50.875355
2023-05-21T03:48:48.708Z,50.875355
2023-05-21T03:49:48.685Z,50.875355
2023-05-21T03:50:48.682Z,50.875355
2023-05-21T03:51:48.681Z,50.875355
2023-05-21T03:52:48.666Z,50.875355
2023-05-21T03:53:48.641Z,50.875355
2023-05-21T03:54:48.636Z,50.875355
2023-05-21T03:55:48.624Z,50.875355
2023-05-21T03:56:48.630Z,50.875355
2023-05-21T03:57:48.614Z,50.875355
2023-05-21T03:58:48.602Z,50.875355
2023-05-21T03:59:48.589Z,50.875355
2023-05-21T04:00:48.577Z,50.875355
2023-05-21T04:01:48.578Z,50.875355
2023-05-21T04:02:48.649Z,50.875355
2023-05-21T04:03:48.773Z,50.875355
2023-05-21T04:04:48.574Z,50.875355
2023-05-21T04:05:48.540Z,50.875355
2023-05-21T04:06:48.533Z,50.875355
2023-05-21T04:07:48.508Z,50.875355
2023-05-21T04:08:48.498Z,50.875355
2023-05-21T04:09:48.488Z,50.875355
2023-05-21T04:10:48.513Z,50.875355
2023-05-21T04:11:48.490Z,50.875355
2023-05-21T04:12:48.471Z,50.875355
2023-05-21T04:13:48.454Z,50.875355
2023-05-21T04:14:48.433Z,50.875355
2023-05-21T04:15:48.456Z,50.875355
2023-05-21T04:16:48.419Z,50.875355
2023-05-21T04:17:48.471Z,50.875355
2023-05-21T04:18:48.411Z,50.875355
2023-05-21T04:19:48.402Z,50.875355
2023-05-21T04:20:48.385Z,50.875355
2023-05-21T04:21:48.368Z,50.875355
2023-05-21T04:22:48.368Z,50.875355
2023-05-21T04:23:48.363Z,50.875355
2023-05-21T04:24:48.328Z,50.875355
2023-05-21T04:25:48.332Z,50.875355
2023-05-21T04:26:48.313Z,50.875355
2023-05-21T04:27:48.302Z,50.875355
2023-05-21T04:28:48.292Z,50.875355
2023-05-21T04:29:50.656Z,50.875355
2023-05-21T04:30:48.278Z,50.875355
2023-05-21T04:31:48.349Z,50.875355
2023-05-21T04:32:48.357Z,50.875355
2023-05-21T04:33:48.248Z,50.875355
2023-05-21T04:34:48.244Z,50.875355
2023-05-21T04:35:48.215Z,50.875355
2023-05-21T04:36:48.226Z,50.875351
2023-05-21T04:37:48.196Z,50.875408
2023-05-21T04:38:48.188Z,50.875404
2023-05-21T04:39:48.198Z,50.875477
2023-05-21T04:40:48.164Z,50.875217
2023-05-21T04:41:48.161Z,50.875217
2023-05-21T04:42:48.147Z,50.875217
2023-05-21T04:43:48.129Z,50.875217
2023-05-21T04:44:48.146Z,50.875217
2023-05-21T04:45:48.129Z,50.875217
2023-05-21T04:46:48.133Z,50.875217
2023-05-21T04:47:48.161Z,50.875217
2023-05-21T04:48:48.102Z,50.875217
2023-05-21T04:49:48.105Z,50.875217
2023-05-21T04:50:48.070Z,50.875217
2023-05-21T04:51:48.063Z,50.875217
2023-05-21T04:52:48.043Z,50.875217
2023-05-21T04:53:49.054Z,50.875217
2023-05-21T04:54:48.026Z,50.875217
2023-05-21T04:55:48.071Z,50.875217
2023-05-21T04:56:48.012Z,50.875217
2023-05-21T04:57:48.003Z,50.875217
2023-05-21T04:58:48.069Z,50.875217
2023-05-21T04:59:47.983Z,50.875217
2023-05-21T05:00:47.991Z,50.875217
2023-05-21T05:01:47.959Z,50.875217
2023-05-21T05:02:48.038Z,50.875217
2023-05-21T05:03:48.000Z,50.875217
2023-05-21T05:04:47.938Z,50.875217
2023-05-21T05:05:47.938Z,50.875217
2023-05-21T05:06:47.914Z,50.875217
2023-05-21T05:07:47.922Z,50.875217
2023-05-21T05:08:47.901Z,50.875217
2023-05-21T05:09:48.888Z,50.875217
2023-05-21T05:10:47.887Z,50.875217
2023-05-21T05:11:47.863Z,50.875217
2023-05-21T05:12:47.878Z,50.875217
2023-05-21T05:13:47.851Z,50.875217
2023-05-21T05:14:47.850Z,50.875217
2023-05-21T05:15:49.632Z,50.875217
2023-05-21T05:16:48.874Z,50.875217
2023-05-21T05:17:47.904Z,50.875217
2023-05-21T05:18:47.825Z,50.875217
2023-05-21T05:19:47.787Z,50.875217
2023-05-21T05:20:47.778Z,50.875217
2023-05-21T05:21:47.775Z,50.875217
2023-05-21T05:22:47.770Z,50.915878
2023-05-21T05:23:47.754Z,50.914894
2023-05-21T05:24:47.739Z,50.913204
2023-05-21T05:25:47.735Z,50.912197
2023-05-21T05:26:47.759Z,50.915039
2023-05-21T05:27:47.727Z,50.914913
2023-05-21T05:28:47.699Z,50.914913
2023-05-21T05:29:47.699Z,50.914913
2023-05-21T05:30:47.731Z,50.914913
2023-05-21T05:31:47.683Z,50.914913
2023-05-21T05:32:47.684Z,50.914913
2023-05-21T05:33:47.649Z,50.914913
2023-05-21T05:34:47.645Z,50.914913
2023-05-21T05:35:47.628Z,50.914913
2023-05-21T05:36:47.635Z,50.914913
2023-05-21T05:37:47.615Z,50.914913
2023-05-21T05:38:47.608Z,50.914913
2023-05-21T05:39:47.588Z,50.914913
2023-05-21T05:40:47.584Z,50.914913
2023-05-21T05:41:47.590Z,50.914913
2023-05-21T05:42:47.670Z,50.914913
2023-05-21T05:43:47.566Z,50.914913
2023-05-21T05:44:47.546Z,50.914913
2023-05-21T05:45:47.596Z,50.914913
2023-05-21T05:46:47.651Z,50.914913
2023-05-21T05:47:47.560Z,50.914913
2023-05-21T05:48:47.498Z,50.914913
2023-05-21T05:49:47.493Z,50.914913
2023-05-21T05:50:47.496Z,50.914913
2023-05-21T05:51:47.474Z,50.914913
2023-05-21T05:52:47.452Z,50.914913
2023-05-21T05:53:47.451Z,50.914913
2023-05-21T05:54:47.456Z,50.914913
2023-05-21T05:55:47.437Z,50.914913
2023-05-21T05:56:47.428Z,50.914913
2023-05-21T05:57:47.420Z,50.875343
2023-05-21T05:58:47.403Z,50.875351
2023-05-21T05:59:47.398Z,50.875362
2023-05-21T06:00:47.375Z,50.875374
2023-05-21T06:01:47.370Z,50.875374
2023-05-21T06:02:47.416Z,50.875374
2023-05-21T06:03:47.506Z,50.875328
2023-05-21T06:04:47.366Z,50.875362
2023-05-21T06:05:47.369Z,50.875305
2023-05-21T06:06:47.322Z,50.875477
2023-05-21T06:07:47.323Z,50.875401
2023-05-21T06:08:47.306Z,50.875519
2023-05-21T06:09:47.316Z,50.875393
2023-05-21T06:10:47.285Z,50.875393
2023-05-21T06:11:47.280Z,50.875416
2023-05-21T06:12:47.266Z,50.875286
2023-05-21T06:13:47.270Z,50.875465
2023-05-21T06:14:47.263Z,50.875412
2023-05-21T06:15:47.297Z,50.875305
2023-05-21T06:16:47.223Z,50.875336
2023-05-21T06:17:47.266Z,50.875397
2023-05-21T06:18:47.247Z,50.875336
2023-05-21T06:19:47.192Z,50.875343
2023-05-21T06:20:47.198Z,50.875328
2023-05-21T06:21:47.185Z,50.875404
2023-05-21T06:22:47.162Z,50.875359
2023-05-21T06:23:47.162Z,50.875408
2023-05-21T06:24:47.151Z,50.875656
2023-05-21T06:25:47.137Z,50.875408
2023-05-21T06:26:47.120Z,50.875340
2023-05-21T06:27:47.117Z,50.875290
2023-05-21T06:28:47.111Z,50.875298
2023-05-21T06:29:47.085Z,50.875427
2023-05-21T06:30:47.090Z,50.875359
2023-05-21T06:31:47.076Z,50.875309
2023-05-21T06:32:47.131Z,50.875286
2023-05-21T06:33:47.137Z,50.875351
2023-05-21T06:34:47.052Z,50.875443
2023-05-21T06:35:47.028Z,50.875401
2023-05-21T06:36:47.032Z,50.875355
2023-05-21T06:37:47.023Z,50.875378
2023-05-21T06:38:46.995Z,50.875370
2023-05-21T06:39:47.006Z,50.875347
2023-05-21T06:40:46.983Z,50.875343
2023-05-21T06:41:47.204Z,50.875351
2023-05-21T06:42:46.975Z,50.875256
2023-05-21T06:43:46.950Z,50.875244
2023-05-21T06:44:46.949Z,50.875378
2023-05-21T06:45:46.948Z,50.875385
2023-05-21T06:46:46.937Z,50.875191
2023-05-21T06:47:46.991Z,50.875484
2023-05-21T06:48:46.909Z,50.876228
2023-05-21T06:49:46.895Z,50.876354
2023-05-21T06:50:46.888Z,50.877224
2023-05-21T06:51:46.884Z,50.877201
2023-05-21T06:52:46.860Z,50.877045
2023-05-21T06:53:46.853Z,50.876587
2023-05-21T06:54:46.851Z,50.876942
2023-05-21T06:55:46.861Z,50.877674
2023-05-21T06:56:46.867Z,50.879314
2023-05-21T06:57:46.830Z,50.879604
2023-05-21T06:58:46.806Z,50.879604
2023-05-21T06:59:46.794Z,50.879604
2023-05-21T07:00:46.846Z,50.879604
2023-05-21T07:01:47.925Z,50.879604
2023-05-21T07:02:47.035Z,50.879604
2023-05-21T07:03:46.795Z,50.879604
2023-05-21T07:04:46.762Z,50.879604
2023-05-21T07:05:46.745Z,50.879604
2023-05-21T07:06:46.915Z,50.879604
2023-05-21T07:07:46.715Z,50.879604
2023-05-21T07:08:46.706Z,50.879604
2023-05-21T07:09:46.692Z,50.879604
2023-05-21T07:10:46.704Z,50.879604
2023-05-21T07:11:46.674Z,50.879604
2023-05-21T07:12:46.669Z,50.879604
2023-05-21T07:13:46.656Z,50.879604
2023-05-21T07:14:46.655Z,50.879604
2023-05-21T07:15:46.654Z,50.879604
2023-05-21T07:16:46.695Z,50.879604
2023-05-21T07:17:46.669Z,50.879604
2023-05-21T07:18:46.626Z,50.879604
2023-05-21T07:19:46.613Z,50.879604
2023-05-21T07:20:46.603Z,50.879604
2023-05-21T07:21:46.574Z,50.879604
2023-05-21T07:22:46.567Z,50.879604
2023-05-21T07:23:46.566Z,50.879604
2023-05-21T07:24:46.560Z,50.879604
2023-05-21T07:25:46.548Z,50.879604
2023-05-21T07:26:46.528Z,50.879604
2023-05-21T07:27:46.523Z,50.879604
2023-05-21T07:28:46.527Z,50.879604
2023-05-21T07:29:46.514Z,50.879604
2023-05-21T07:30:46.508Z,50.879604
2023-05-21T07:31:46.479Z,50.879604
2023-05-21T07:32:46.514Z,50.879604
2023-05-21T07:33:46.455Z,50.879604
2023-05-21T07:34:46.467Z,50.879604
2023-05-21T07:35:46.441Z,50.879604
2023-05-21T07:36:46.434Z,50.879604
2023-05-21T07:37:46.456Z,50.879604
2023-05-21T07:38:46.415Z,50.879604
2023-05-21T07:39:46.408Z,50.879604
2023-05-21T07:40:46.393Z,50.879604
2023-05-21T07:41:46.385Z,50.879604
2023-05-21T07:42:46.377Z,50.879604
2023-05-21T07:43:46.367Z,50.879604
2023-05-21T07:44:46.361Z,50.879604
2023-05-21T07:45:46.345Z,50.879604
2023-05-21T07:46:46.432Z,50.879604
2023-05-21T07:47:46.368Z,50.879604
2023-05-21T07:48:46.315Z,50.879604
2023-05-21T07:49:46.353Z,50.877289
2023-05-21T07:50:46.309Z,50.877216
2023-05-21T07:51:46.290Z,50.875946
2023-05-21T07:52:46.358Z,50.875187
2023-05-21T07:53:46.268Z,50.875477
2023-05-21T07:54:46.269Z,50.875366
2023-05-21T07:55:46.256Z,50.875423
2023-05-21T07:56:46.250Z,50.875511
2023-05-21T07:57:46.230Z,50.875465
2023-05-21T07:58:46.240Z,50.875362
2023-05-21T07:59:46.217Z,50.875408
2023-05-21T08:00:46.199Z,50.875431
2023-05-21T08:01:46.195Z,50.875443
2023-05-21T08:02:46.237Z,50.875473
2023-05-21T08:03:46.294Z,50.875530
2023-05-21T08:04:46.194Z,50.875546
2023-05-21T08:05:46.156Z,50.875439
2023-05-21T08:06:46.150Z,50.875450
2023-05-21T08:07:47.139Z,50.875515
2023-05-21T08:08:46.136Z,50.875515
2023-05-21T08:09:46.126Z,50.875340
2023-05-21T08:10:46.101Z,50.875324
2023-05-21T08:11:46.097Z,50.875313
2023-05-21T08:12:46.098Z,50.875328
2023-05-21T08:13:46.113Z,50.875351
2023-05-21T08:14:46.062Z,50.875370
2023-05-21T08:15:46.060Z,50.875340
2023-05-21T08:16:46.174Z,50.875267
2023-05-21T08:17:46.080Z,50.875328
2023-05-21T08:18:46.036Z,50.875355
2023-05-21T08:19:46.015Z,50.875435
2023-05-21T08:20:46.008Z,50.875362
2023-05-21T08:21:46.023Z,50.875401
2023-05-21T08:22:46.013Z,50.875313
2023-05-21T08:23:45.975Z,50.875347
2023-05-21T08:24:45.977Z,50.875420
2023-05-21T08:25:45.975Z,50.875416
2023-05-21T08:26:45.981Z,50.875412
2023-05-21T08:27:45.958Z,50.875393
2023-05-21T08:28:45.931Z,50.875351
2023-05-21T08:29:45.924Z,50.875347
2023-05-21T08:30:45.920Z,50.875290
2023-05-21T08:31:46.003Z,50.875275
2023-05-21T08:32:45.924Z,50.875370
2023-05-21T08:33:45.888Z,50.875412
2023-05-21T08:34:45.873Z,50.875229
2023-05-21T08:35:45.877Z,50.875336
2023-05-21T08:36:45.864Z,50.875374
2023-05-21T08:37:45.851Z,50.875359
2023-05-21T08:38:45.944Z,50.875351
2023-05-21T08:39:45.823Z,50.875359
2023-05-21T08:40:45.835Z,50.875404
2023-05-21T08:41:45.810Z,50.875431
2023-05-21T08:42:45.801Z,50.875416
2023-05-21T08:43:47.385Z,50.875351
2023-05-21T08:44:45.847Z,50.875301
2023-05-21T08:45:45.873Z,50.875343
2023-05-21T08:46:45.823Z,50.875179
2023-05-21T08:47:45.809Z,50.875168
2023-05-21T08:48:45.795Z,50.875252
2023-05-21T08:49:45.781Z,50.875172
2023-05-21T08:50:45.775Z,50.875214
2023-05-21T08:51:45.753Z,50.875286
2023-05-21T08:52:45.791Z,50.875439
2023-05-21T08:53:45.762Z,50.875580
2023-05-21T08:54:45.789Z,50.875477
2023-05-21T08:55:45.777Z,50.875336
2023-05-21T08:56:45.733Z,50.875462
2023-05-21T08:57:45.766Z,50.875359
2023-05-21T08:58:45.744Z,50.875549
2023-05-21T08:59:45.690Z,50.875412
2023-05-21T09:00:45.664Z,50.875610
2023-05-21T09:01:45.753Z,50.875553
2023-05-21T09:02:45.700Z,50.875427
2023-05-21T09:03:46.689Z,50.875431
2023-05-21T09:04:45.738Z,50.875473
2023-05-21T09:05:45.650Z,50.875408
2023-05-21T09:06:45.628Z,50.875324
2023-05-21T09:07:45.629Z,50.875393
2023-05-21T09:08:45.603Z,50.875420
2023-05-21T09:09:45.628Z,50.875420
2023-05-21T09:10:45.593Z,50.875362
2023-05-21T09:11:45.591Z,50.875389
2023-05-21T09:12:45.552Z,50.875340
2023-05-21T09:13:45.609Z,50.875431
2023-05-21T09:14:45.641Z,50.875492
2023-05-21T09:15:45.526Z,50.875393
2023-05-21T09:16:45.600Z,50.875328
2023-05-21T09:17:45.620Z,50.875412
2023-05-21T09:18:45.587Z,50.875450
2023-05-21T09:19:45.530Z,50.875340
2023-05-21T09:20:45.471Z,50.875351
2023-05-21T09:21:45.474Z,50.875809
2023-05-21T09:22:45.499Z,50.876057
2023-05-21T09:23:45.522Z,50.875782
2023-05-21T09:24:45.472Z,50.875423
2023-05-21T09:25:45.459Z,50.875469
2023-05-21T09:26:45.567Z,50.875458
2023-05-21T09:27:45.533Z,50.875286
2023-05-21T09:28:45.465Z,50.875130
2023-05-21T09:29:45.442Z,50.875393
2023-05-21T09:30:45.472Z,50.875408
2023-05-21T09:31:45.612Z,50.875374
2023-05-21T09:32:45.425Z,50.875385
2023-05-21T09:33:45.411Z,50.875496
2023-05-21T09:34:45.385Z,50.875252
2023-05-21T09:35:45.360Z,50.875511
2023-05-21T09:36:45.369Z,50.875359
2023-05-21T09:37:45.352Z,50.875477
2023-05-21T09:38:45.351Z,50.875290
2023-05-21T09:39:45.300Z,50.875271
2023-05-21T09:40:45.332Z,50.875385
2023-05-21T09:41:45.309Z,50.875256
2023-05-21T09:42:45.317Z,50.875256
2023-05-21T09:43:45.302Z,50.875351
2023-05-21T09:44:45.305Z,50.875320
2023-05-21T09:45:45.316Z,50.875462
2023-05-21T09:46:45.317Z,50.875446
2023-05-21T09:47:45.268Z,50.875511
2023-05-21T09:48:45.240Z,50.875462
2023-05-21T09:49:45.214Z,50.875347
2023-05-21T09:50:45.237Z,50.875362
2023-05-21T09:51:45.190Z,50.875275
2023-05-21T09:52:45.165Z,50.875378
2023-05-21T09:53:45.159Z,50.875267
2023-05-21T09:54:45.173Z,50.875462
2023-05-21T09:55:45.168Z,50.875397
2023-05-21T09:56:45.149Z,50.875381
2023-05-21T09:57:45.133Z,50.875389
2023-05-21T09:58:45.140Z,50.875412
2023-05-21T09:59:45.103Z,50.875465
2023-05-21T10:00:45.226Z,50.875439
2023-05-21T10:01:45.231Z,50.875275
2023-05-21T10:02:45.198Z,50.875286
2023-05-21T10:03:45.166Z,50.875347
2023-05-21T10:04:45.244Z,50.875301
2023-05-21T10:05:45.146Z,50.875427
2023-05-21T10:06:45.029Z,50.875443
2023-05-21T10:07:45.046Z,50.875454
2023-05-21T10:08:45.039Z,50.875622
2023-05-21T10:09:45.021Z,50.875507
2023-05-21T10:10:45.044Z,50.875332
2023-05-21T10:11:45.042Z,50.875191
2023-05-21T10:12:44.981Z,50.875359
2023-05-21T10:13:44.980Z,50.875534
2023-05-21T10:14:45.020Z,50.875534
2023-05-21T10:15:45.044Z,50.875534
2023-05-21T10:16:45.042Z,50.875347
2023-05-21T10:17:45.001Z,50.875317
2023-05-21T10:18:44.976Z,50.875290
2023-05-21T10:19:44.974Z,50.875362
2023-05-21T10:20:44.942Z,50.875351
2023-05-21T10:21:47.270Z,50.875374
2023-05-21T10:22:45.896Z,50.875385
2023-05-21T10:23:48.611Z,50.875370
2023-05-21T10:24:45.626Z,50.875668
2023-05-21T10:25:44.888Z,50.875866
2023-05-21T10:26:44.879Z,50.875866
2023-05-21T10:27:44.919Z,50.875866
2023-05-21T10:28:44.910Z,50.875866
2023-05-21T10:29:44.932Z,50.875866
2023-05-21T10:30:44.886Z,50.875866
2023-05-21T10:31:44.856Z,50.875866
2023-05-21T10:32:44.990Z,50.875866
2023-05-21T10:33:44.817Z,50.875866
2023-05-21T10:34:44.803Z,50.875866
2023-05-21T10:35:44.829Z,50.875866
2023-05-21T10:36:44.797Z,50.875866
2023-05-21T10:37:44.795Z,50.875866
2023-05-21T10:38:44.805Z,50.875324
2023-05-21T10:39:44.775Z,50.875366
2023-05-21T10:40:44.747Z,50.875317
2023-05-21T10:41:46.646Z,50.875320
2023-05-21T10:42:44.724Z,50.875767
2023-05-21T10:43:44.748Z,50.875095
2023-05-21T10:44:44.725Z,50.875324
2023-05-21T10:45:44.714Z,50.875340
2023-05-21T10:46:44.771Z,50.875294
2023-05-21T10:47:44.698Z,50.875401
2023-05-21T10:48:44.676Z,50.875561
2023-05-21T10:49:44.661Z,50.875507
2023-05-21T10:50:44.621Z,50.875252
2023-05-21T10:51:44.672Z,50.875290
2023-05-21T10:52:44.714Z,50.875614
2023-05-21T10:53:44.660Z,50.875496
2023-05-21T10:54:44.608Z,50.875244
2023-05-21T10:55:44.618Z,50.875847
2023-05-21T10:56:44.600Z,50.875984
2023-05-21T10:57:44.605Z,50.876621
2023-05-21T10:58:44.587Z,50.877293
2023-05-21T10:59:44.580Z,50.878227
2023-05-21T11:00:44.594Z,50.879284
2023-05-21T11:01:44.655Z,50.879749
2023-05-21T11:02:44.643Z,50.879879
2023-05-21T11:03:44.614Z,50.880375
2023-05-21T11:04:44.537Z,50.880665
2023-05-21T11:05:44.531Z,50.881229
2023-05-21T11:06:44.535Z,50.881504
2023-05-21T11:07:44.513Z,50.881718
2023-05-21T11:08:45.596Z,50.882107
2023-05-21T11:09:44.454Z,50.876488
2023-05-21T11:10:44.515Z,50.876186
2023-05-21T11:11:44.437Z,50.876167
2023-05-21T11:12:44.416Z,50.875843
2023-05-21T11:13:44.392Z,50.875568
2023-05-21T11:14:44.396Z,50.875095
2023-05-21T11:15:44.379Z,50.875126
2023-05-21T11:16:44.408Z,50.875301
2023-05-21T11:17:44.424Z,50.875309
2023-05-21T11:18:44.500Z,50.875252
2023-05-21T11:19:44.431Z,50.875565
2023-05-21T11:20:44.352Z,50.875496
2023-05-21T11:21:44.359Z,50.875374
2023-05-21T11:22:44.340Z,50.875401
2023-05-21T11:23:44.322Z,50.875202
2023-05-21T11:24:44.316Z,50.875263
2023-05-21T11:25:44.318Z,50.875347
2023-05-21T11:26:44.305Z,50.875370
2023-05-21T11:27:44.307Z,50.875374
2023-05-21T11:28:44.266Z,50.875412
2023-05-21T11:29:44.307Z,50.875408
2023-05-21T11:30:44.520Z,50.875370
2023-05-21T11:31:44.290Z,50.874847
2023-05-21T11:32:44.271Z,50.875488
2023-05-21T11:33:44.234Z,50.875179
2023-05-21T11:34:44.199Z,50.875237
2023-05-21T11:35:44.203Z,50.875320
2023-05-21T11:36:44.185Z,50.875389
2023-05-21T11:37:44.175Z,50.875336
2023-05-21T11:38:44.158Z,50.875496
2023-05-21T11:39:44.169Z,50.875488
2023-05-21T11:40:44.154Z,50.875877
2023-05-21T11:41:44.147Z,50.875420
2023-05-21T11:42:44.155Z,50.875404
2023-05-21T11:43:45.131Z,50.875549